• Join FlightAware (Why Join?)
  • Login
  • US Flag 
05:57AM EDT


 

Airport Tracker/Info


-or-


 

Live Flight TrackerFlight Track Log ✈ UPS32 ✈ 23-Apr-2013 ✈ KSDF - PHNL

Flight Track Log - Related Links

Times and Time Zones

All times are in EDT time to prevent confusion due to time zone crossing. See the UPS32 flight status page for this flight to view local times or setup timezone preferences in your user account.

Time Position Orientation Groundspeed Altitude Reporting Facility
EDT Latitude Longitude Course Direction KTS MPH feet Rate Location/Type
03:58AM 38.1500 -85.7370 166° South 178 205 1,200  Level FlightAware
03:59AM 38.1160 -85.7410 185° South 207 238 2,200 1,260 Climbing FlightAware
04:00AM 38.0840 -85.7480 190° South 246 283 2,700 1,020 Climbing FlightAware
04:00AM 38.0750 -85.7540 208° Southwest 253 291 2,900 1,440 Climbing FlightAware
04:00AM 38.0620 -85.7710 226° Southwest 270 311 3,300 2,580 Climbing FlightAware
04:00AM 38.0550 -85.7940 249° West 275 316 4,200 3,120 Climbing FlightAware
04:01AM 38.0610 -85.8310 282° West 289 333 5,400 3,000 Climbing FlightAware
04:01AM 38.0750 -85.8520 310° West 300 345 6,200 3,180 Climbing FlightAware
04:01AM 38.0920 -85.8680 323° Northwest 304 350 7,000 3,060 Climbing FlightAware
04:02AM 38.1250 -85.9000 323° Northwest 308 354 8,500 3,120 Climbing FlightAware
04:02AM 38.1710 -85.9470 321° Northwest 313 360 10,700 2,460 Climbing FlightAware
04:03AM 38.2180 -85.9940 322° Northwest 352 405 11,800 1,860 Climbing FlightAware
04:04AM 38.2810 -86.0540 323° Northwest 384 442 13,400 2,160 Climbing FlightAware
04:04AM 38.3400 -86.1110 323° Northwest 403 464 14,900 2,580 Climbing FlightAware
04:05AM 38.4070 -86.1760 323° Northwest 406 467 17,100 2,880 Climbing FlightAware
04:06AM 38.4680 -86.2350 323° Northwest 409 471 19,000 2,460 Climbing FlightAware
04:07AM 38.5360 -86.3020 322° Northwest 420 483 20,600 1,860 Climbing FlightAware
04:07AM 38.6010 -86.3650 323° Northwest 435 501 21,700 1,680 Climbing FlightAware
04:08AM 38.6640 -86.4270 322° Northwest 445 512 22,900 2,100 Climbing FlightAware
04:09AM 38.7380 -86.4990 323° Northwest 442 509 24,700 2,040 Climbing FlightAware
04:09AM 38.8030 -86.5630 323° Northwest 446 513 25,800 1,560 Climbing FlightAware
04:10AM 38.8670 -86.6260 323° Northwest 450 518 26,800 2,100 Climbing FlightAware
04:11AM 38.9440 -86.7020 322° Northwest 436 502 28,800 2,400 Climbing FlightAware
04:12AM 39.0280 -86.7850 323° Northwest 421 484 30,800 1,500 Climbing FlightAware
04:12AM 39.0960 -86.8540 322° Northwest 425 489 31,300 720 Climbing FlightAware
04:13AM 39.1610 -86.9180 323° Northwest 417 480 31,900 480 Climbing FlightAware
04:14AM 39.2190 -86.9760 322° Northwest 409 471 32,000 60 Climbing FlightAware
04:14AM 39.2880 -87.0470 321° Northwest 410 472 32,000  Level FlightAware
04:15AM 39.3470 -87.1060 322° Northwest 413 475 32,000  Level FlightAware
04:16AM 39.4120 -87.1710 322° Northwest 416 479 32,000  Level FlightAware
04:16AM 39.4640 -87.2240 322° Northwest 418 481 32,000  Level FlightAware
04:17AM 39.5370 -87.2980 322° Northwest 411 473 32,000  Level FlightAware
04:18AM 39.6010 -87.3690 319° Northwest 402 463 32,000  Level FlightAware
04:19AM 39.6590 -87.4330 320° Northwest 400 460 32,000  Level FlightAware
04:19AM 39.7210 -87.5010 320° Northwest 399 459 32,000  Level FlightAware
04:20AM 39.7770 -87.5630 320° Northwest 399 459 32,000  Level FlightAware
04:21AM 39.8540 -87.6470 320° Northwest 397 457 32,000  Level FlightAware
04:22AM 39.9160 -87.7160 320° Northwest 396 456 32,000  Level FlightAware
04:22AM 39.9730 -87.7780 320° Northwest 395 455 32,000 60 Level FlightAware
04:23AM 40.0370 -87.8490 320° Northwest 392 451 32,100 60 Climbing FlightAware
04:24AM 40.0920 -87.9100 320° Northwest 391 450 32,100 -120 Level FlightAware
04:25AM 40.1530 -87.9780 320° Northwest 390 449 32,000 -120 Descending FlightAware
04:25AM 40.2010 -88.0460 313° West 380 437 32,000  Level FlightAware
04:26AM 40.2200 -88.1360 285° West 380 437 32,000  Level FlightAware
04:27AM 40.2330 -88.2400 279° West 381 438 32,000  Level FlightAware
04:27AM 40.2440 -88.3300 279° West 382 440 32,000 60 Level FlightAware
04:28AM 40.2560 -88.4320 279° West 382 440 32,100 60 Climbing FlightAware
04:29AM 40.2670 -88.5240 279° West 382 440 32,100  Level FlightAware
04:29AM 40.2780 -88.6150 279° West 382 440 32,100  Level FlightAware
04:30AM 40.2890 -88.7150 278° West 377 434 32,100 -120 Level FlightAware
04:31AM 40.3000 -88.8050 279° West 373 429 32,000 -120 Descending FlightAware
04:31AM 40.3100 -88.8940 278° West 369 425 32,000  Level FlightAware
04:32AM 40.3220 -88.9960 279° West 371 427 32,000  Level FlightAware
04:33AM 40.3350 -89.1160 278° West 373 429 32,000 60 Level FlightAware
04:34AM 40.3460 -89.2060 279° West 375 432 32,100 60 Climbing FlightAware
04:34AM 40.3560 -89.2960 278° West 375 432 32,100 -120 Level FlightAware
04:35AM 40.3670 -89.4000 278° West 373 429 32,000 -120 Descending FlightAware
04:36AM 40.3770 -89.4900 278° West 374 430 32,000  Level FlightAware
04:37AM 40.3880 -89.5900 278° West 373 429 32,000  Level FlightAware
04:37AM 40.3980 -89.6800 278° West 372 428 32,000  Level FlightAware
04:38AM 40.4090 -89.7830 278° West 373 429 32,000  Level FlightAware
04:39AM 40.4180 -89.8680 278° West 374 430 32,000  Level FlightAware
04:39AM 40.4270 -89.9600 277° West 373 429 32,000  Level FlightAware
04:40AM 40.4380 -90.0620 278° West 376 433 32,000  Level FlightAware
04:41AM 40.4480 -90.1520 278° West 378 435 32,000  Level FlightAware
04:42AM 40.4580 -90.2530 277° West 379 436 32,000 60 Level FlightAware
04:42AM 40.4680 -90.3460 278° West 379 436 32,100 60 Climbing FlightAware
04:43AM 40.4770 -90.4390 277° West 376 433 32,100 -120 Level FlightAware
04:43AM 40.4850 -90.5160 278° West 372 428 32,000 -120 Descending FlightAware
04:44AM 40.4960 -90.6270 277° West 368 423 32,000  Level FlightAware
04:45AM 40.5050 -90.7150 278° West 366 421 32,000  Level FlightAware
04:46AM 40.5150 -90.8170 277° West 368 423 32,000  Level FlightAware
04:46AM 40.5230 -90.9070 277° West 373 429 32,000 60 Level FlightAware
04:47AM 40.5330 -91.0040 278° West 377 434 32,100 60 Climbing FlightAware
04:48AM 40.5410 -91.0910 277° West 381 438 32,100  Level FlightAware
04:48AM 40.5510 -91.1900 278° West 380 437 32,100  Level FlightAware
04:49AM 40.5610 -91.2940 277° West 374 430 32,100 -120 Level FlightAware
04:50AM 40.5680 -91.3800 276° West 372 428 32,000 -120 Descending FlightAware
04:51AM 40.5800 -91.5050 277° West 371 427 32,000  Level FlightAware
04:52AM 40.5890 -91.6050 277° West 375 432 32,000  Level FlightAware
04:52AM 40.5980 -91.7010 277° West 378 435 32,000 60 Level FlightAware
04:53AM 40.6070 -91.8010 277° West 380 437 32,100 60 Climbing FlightAware
04:54AM 40.6150 -91.8930 277° West 383 441 32,100  Level FlightAware
04:54AM 40.6230 -91.9840 277° West 385 443 32,100 -120 Level FlightAware
04:55AM 40.6320 -92.0930 276° West 387 445 32,000 -120 Descending FlightAware
04:56AM 40.6400 -92.1870 276° West 386 444 32,000  Level FlightAware
04:56AM 40.6480 -92.2760 277° West 388 447 32,000  Level FlightAware
04:57AM 40.6540 -92.3490 276° West 388 447 32,000  Level FlightAware
04:58AM 40.6630 -92.4520 277° West 385 443 32,000 60 Level FlightAware
04:58AM 40.6700 -92.5470 276° West 381 438 32,100  Climbing FlightAware
04:59AM 40.6780 -92.6360 277° West 377 434 32,000 -120 Descending FlightAware
05:00AM 40.6870 -92.7430 276° West 374 430 32,000  Level FlightAware
05:00AM 40.6930 -92.8290 275° West 373 429 32,000  Level FlightAware
05:01AM 40.7000 -92.9150 276° West 377 434 32,000  Level FlightAware
05:02AM 40.7090 -93.0260 276° West 381 438 32,000  Level FlightAware
05:03AM 40.7170 -93.1310 276° West 385 443 32,000  Level FlightAware
05:03AM 40.7250 -93.2270 276° West 390 449 32,000 60 Level FlightAware
05:04AM 40.7310 -93.3170 275° West 392 451 32,100 60 Climbing FlightAware
05:05AM 40.7400 -93.4270 276° West 395 455 32,100  Level FlightAware
05:05AM 40.7460 -93.5160 275° West 398 458 32,100 -120 Level FlightAware
05:06AM 40.7530 -93.6110 276° West 401 461 32,000  Descending FlightAware
05:07AM 40.7610 -93.7210 276° West 402 463 32,100 60 Climbing FlightAware
05:07AM 40.7680 -93.8110 276° West 401 461 32,100  Level FlightAware
05:08AM 40.7740 -93.9120 275° West 401 461 32,100  Level FlightAware
05:09AM 40.7800 -93.9950 275° West 401 461 32,100 -120 Level FlightAware
05:09AM 40.7880 -94.1190 275° West 394 453 32,000 -120 Descending FlightAware
05:10AM 40.7980 -94.2480 276° West 392 451 32,000  Level FlightAware
05:11AM 40.8050 -94.3580 275° West 393 452 32,000  Level FlightAware
05:12AM 40.8090 -94.4390 274° West 393 452 32,000  Level FlightAware
05:12AM 40.8130 -94.5210 274° West 393 452 32,000  Level FlightAware
05:13AM 40.8270 -94.6990 276° West 398 458 32,000  Level FlightAware
05:14AM 40.8310 -94.7810 274° West 398 458 32,000  Level FlightAware
05:15AM 40.8350 -94.8640 274° West 398 458 32,000  Level FlightAware
05:15AM 40.8400 -94.9460 275° West 398 458 32,000  Level FlightAware
05:16AM 40.8440 -95.0290 274° West 398 458 32,000  Level FlightAware
05:17AM 40.8500 -95.1320 274° West 398 458 32,000  Level FlightAware
05:18AM 40.8540 -95.2150 274° West 398 458 32,000  Level FlightAware
05:18AM 40.8580 -95.2970 274° West 398 458 32,000  Level FlightAware
05:19AM 40.8630 -95.3800 275° West 398 458 32,000  Level FlightAware
05:20AM 40.8680 -95.4830 274° West 398 458 32,000  Level FlightAware
05:20AM 40.8730 -95.5660 275° West 398 458 32,000  Level FlightAware
05:21AM 40.8770 -95.6480 274° West 398 458 32,000  Level FlightAware
05:22AM 40.8810 -95.7310 274° West 398 458 32,000  Level FlightAware
05:22AM 40.8860 -95.8130 275° West 398 458 32,000  Level FlightAware
05:24AM 40.9100 -96.1433 275° West 384 442 32,000  Level Minneapolis Center
05:25AM 40.9169 -96.2831 274° West 380 437 32,000  Level Minneapolis Center
05:26AM 40.9228 -96.4256 273° West 385 443 32,100  Climbing Minneapolis Center
05:27AM 40.9306 -96.5689 274° West 388 447 32,000 -60 Descending Minneapolis Center
05:28AM 40.9372 -96.7089 274° West 384 442 32,000  Level Minneapolis Center
05:29AM 40.9444 -96.8781 273° West 383 441 32,000  Level Minneapolis Center
05:30AM 40.9506 -97.0192 273° West 384 442 32,000  Level Minneapolis Center
05:31AM 40.9561 -97.1594 273° West 383 441 32,000  Level Minneapolis Center
05:32AM 40.9622 -97.3056 273° West 393 452 32,000  Level Minneapolis Center
05:33AM 40.9681 -97.4614 273° West 388 447 32,000  Level Minneapolis Center
05:34AM 40.9739 -97.6017 273° West 383 441 32,000  Level Minneapolis Center
05:35AM 40.9783 -97.7392 272° West 377 434 32,000  Level Minneapolis Center
05:36AM 40.9844 -97.8783 273° West 377 434 32,000  Level Minneapolis Center
05:37AM 40.9889 -98.0153 273° West 374 430 32,000  Level Minneapolis Center
05:38AM 40.9933 -98.1517 273° West 371 427 32,000  Level Minneapolis Center
05:39AM 40.9983 -98.2900 273° West 374 430 32,100  Climbing Minneapolis Center
05:40AM 41.0028 -98.4408 272° West 376 433 32,000 -60 Descending Minneapolis Center
05:41AM 41.0078 -98.5800 273° West 378 435 32,000  Level Minneapolis Center
05:42AM 41.0114 -98.7178 272° West 376 433 32,000  Level Minneapolis Center
05:43AM 41.0150 -98.8569 272° West 378 435 32,000  Level Minneapolis Center
05:44AM 41.0192 -98.9981 272° West 382 440 32,100  Climbing Minneapolis Center
05:45AM 41.0233 -99.1383 272° West 382 440 32,000  Descending Minneapolis Center
05:45AM 41.0242 -99.1931 271° West 382 440 32,100  Climbing Denver Center
05:46AM 41.0272 -99.3344 272° West 383 441 32,000 -60 Descending Denver Center
05:47AM 41.0311 -99.4758 272° West 383 441 32,000  Level Denver Center
05:48AM 41.0339 -99.6153 272° West 380 437 32,000  Level Denver Center
05:49AM 41.0364 -99.7531 271° West 376 433 32,000  Level Denver Center
05:50AM 41.0389 -99.8975 271° West 369 425 32,000  Level Denver Center
05:51AM 41.0414 -100.0267 272° West 368 423 32,000  Level Denver Center
05:52AM 41.0433 -100.1564 271° West 369 425 32,000  Level Denver Center
05:54AM 41.0456 -100.3094 271° West 372 428 32,000  Level Denver Center
05:55AM 41.0475 -100.4406 271° West 374 430 32,000  Level Denver Center
05:56AM 41.0492 -100.5719 271° West 375 432 32,000  Level Denver Center
05:57AM 41.0514 -100.7242 271° West 375 432 32,000  Level Denver Center
05:58AM 41.0525 -100.8550 271° West 375 432 32,000  Level Denver Center
06:03AM 41.0568 -101.6130 271° West 379 436 32,100  Climbing FlightAware ADS-B
06:03AM 41.0572 -101.6850 270° West 379 436 32,100  Level FlightAware ADS-B
06:04AM 41.0574 -101.7520 270° West 378 435 32,100 -120 Level FlightAware ADS-B
06:04AM 41.0576 -101.8240 270° West 375 432 32,000 -120 Descending FlightAware ADS-B
06:05AM 41.0575 -101.8950 270° West 375 432 32,000  Level FlightAware ADS-B
06:06AM 41.0574 -101.9640 270° West 376 433 32,000  Level FlightAware ADS-B
06:06AM 41.0575 -102.0350 270° West 377 434 32,000  Level FlightAware ADS-B
06:07AM 41.0575 -102.1050 270° West 377 434 32,000  Level FlightAware ADS-B
06:07AM 41.0575 -102.1740 270° West 378 435 32,000  Level FlightAware ADS-B
06:08AM 41.0573 -102.2450 270° West 378 435 32,000  Level FlightAware ADS-B
06:08AM 41.0570 -102.3150 270° West 379 436 32,000  Level FlightAware ADS-B
06:09AM 41.0568 -102.3870 270° West 380 437 32,000  Level FlightAware ADS-B
06:09AM 41.0565 -102.4570 270° West 380 437 32,000  Level FlightAware ADS-B
06:10AM 41.0562 -102.5280 270° West 380 437 32,000 60 Level FlightAware ADS-B
06:10AM 41.0558 -102.6000 270° West 379 436 32,100 60 Climbing FlightAware ADS-B
06:11AM 41.0556 -102.6700 270° West 379 436 32,100 -120 Level FlightAware ADS-B
06:11AM 41.0550 -102.7420 269° West 378 435 32,000 -120 Descending FlightAware ADS-B
06:12AM 41.0547 -102.8110 270° West 378 435 32,000  Level FlightAware ADS-B
06:12AM 41.0540 -102.8810 269° West 378 435 32,000  Level FlightAware ADS-B
06:13AM 41.0534 -102.9500 269° West 378 435 32,000  Level FlightAware ADS-B
06:13AM 41.0527 -103.0310 269° West 377 434 32,000  Level FlightAware ADS-B
06:14AM 41.0520 -103.1070 269° West 376 433 32,000  Level FlightAware ADS-B
06:14AM 41.0511 -103.1780 269° West 375 432 32,000  Level FlightAware ADS-B
06:15AM 41.0505 -103.2470 269° West 374 430 32,000  Level FlightAware ADS-B
06:15AM 41.0496 -103.3310 269° West 374 430 32,000  Level FlightAware ADS-B
06:16AM 41.0488 -103.4000 269° West 373 429 32,000  Level FlightAware ADS-B
06:16AM 41.0479 -103.4710 269° West 373 429 32,000  Level FlightAware ADS-B
06:17AM 41.0471 -103.5460 269° West 372 428 32,000  Level FlightAware ADS-B
06:17AM 41.0459 -103.6140 269° West 372 428 32,000  Level FlightAware ADS-B
06:18AM 41.0448 -103.6820 269° West 371 427 32,000  Level FlightAware ADS-B
06:18AM 41.0439 -103.7530 269° West 371 427 32,000  Level FlightAware ADS-B
06:19AM 41.0429 -103.8210 269° West 371 427 32,000  Level FlightAware ADS-B
06:19AM 41.0417 -103.8890 269° West 370 426 32,000  Level FlightAware ADS-B
06:20AM 41.0404 -103.9590 269° West 371 427 32,000  Level FlightAware ADS-B
06:20AM 41.0393 -104.0270 269° West 372 428 32,000  Level FlightAware ADS-B
06:21AM 41.0380 -104.0970 269° West 371 427 32,000  Level FlightAware ADS-B
06:21AM 41.0369 -104.1660 269° West 372 428 32,000  Level FlightAware ADS-B
06:22AM 41.0355 -104.2340 268° West 373 429 32,000  Level FlightAware ADS-B
06:23AM 41.0341 -104.3050 269° West 377 434 32,000  Level FlightAware ADS-B
06:23AM 41.0327 -104.3680 268° West 379 436 32,000 60 Level FlightAware ADS-B
06:23AM 41.0314 -104.4400 269° West 382 440 32,100 60 Climbing FlightAware ADS-B
06:24AM 41.0300 -104.5140 269° West 383 441 32,100  Level FlightAware ADS-B
06:25AM 41.0283 -104.5850 268° West 383 441 32,100  Level FlightAware ADS-B
06:25AM 41.0265 -104.6550 268° West 382 440 32,100 -120 Level FlightAware ADS-B
06:26AM 41.0246 -104.7320 268° West 380 437 32,000 -120 Descending FlightAware ADS-B
06:26AM 41.0228 -104.8150 268° West 380 437 32,000  Level FlightAware ADS-B
06:27AM 41.0208 -104.8900 268° West 379 436 32,000  Level FlightAware ADS-B
06:27AM 41.0190 -104.9590 268° West 379 436 32,000  Level FlightAware ADS-B
06:28AM 41.0170 -105.0330 268° West 380 437 32,000  Level FlightAware ADS-B
06:28AM 41.0152 -105.1030 268° West 382 440 32,000  Level FlightAware ADS-B
06:29AM 41.0132 -105.1760 268° West 384 442 32,000 60 Level FlightAware ADS-B
06:29AM 41.0107 -105.2600 268° West 384 442 32,100 60 Climbing FlightAware ADS-B
06:30AM 41.0080 -105.3520 268° West 385 443 32,100  Level FlightAware
06:31AM 41.0050 -105.4460 268° West 385 443 32,100 -120 Level FlightAware
06:31AM 41.0020 -105.5570 268° West 385 443 32,000 -180 Descending FlightAware
06:31AM 41.0019 -105.5640 269° West 385 443 32,000  Level FlightAware ADS-B
06:32AM 40.9988 -105.6530 267° West 385 443 32,000  Level FlightAware ADS-B
06:33AM 40.9960 -105.7430 268° West 385 443 32,000  Level FlightAware ADS-B
06:34AM 40.9930 -105.8490 268° West 386 444 32,000  Level FlightAware
06:34AM 40.9890 -105.9440 267° West 389 448 32,000  Level FlightAware
06:35AM 40.9850 -106.0530 267° West 389 448 32,000  Level FlightAware
06:36AM 40.9820 -106.1480 268° West 391 450 32,000 60 Level FlightAware
06:36AM 40.9780 -106.2440 267° West 391 450 32,100  Climbing FlightAware
06:37AM 40.9750 -106.3490 268° West 391 450 32,000 -120 Descending FlightAware
06:38AM 40.9710 -106.4450 267° West 394 453 32,000  Level FlightAware
06:38AM 40.9670 -106.5390 267° West 396 456 32,000  Level FlightAware
06:39AM 40.9630 -106.6530 267° West 399 459 32,000 60 Level FlightAware
06:40AM 40.9580 -106.7640 267° West 400 460 32,100 60 Climbing FlightAware
06:41AM 40.9550 -106.8470 267° West 400 460 32,100  Level FlightAware
06:41AM 40.9510 -106.9510 267° West 400 460 32,100  Level FlightAware
06:42AM 40.9470 -107.0340 266° West 400 460 32,100  Level FlightAware
06:43AM 40.9440 -107.1180 267° West 400 460 32,100  Level FlightAware
06:43AM 40.9410 -107.2010 267° West 400 460 32,100  Level FlightAware
06:44AM 40.9370 -107.2840 266° West 400 460 32,100  Level FlightAware
06:45AM 40.9330 -107.3880 267° West 400 460 32,100  Level FlightAware
06:46AM 40.9300 -107.4710 267° West 400 460 32,100  Level FlightAware
06:46AM 40.9270 -107.5540 267° West 400 460 32,100  Level FlightAware
06:47AM 40.9230 -107.6370 266° West 400 460 32,100  Level FlightAware
06:48AM 40.9200 -107.7210 267° West 400 460 32,100  Level FlightAware
06:48AM 40.9160 -107.8250 267° West 400 460 32,100  Level FlightAware
06:49AM 40.9130 -107.9080 267° West 400 460 32,100 -120 Level FlightAware
06:50AM 40.8886 -108.2175 267° West 413 475 32,000 -120 Descending Denver Center
06:51AM 40.8792 -108.3878 266° West 415 478 32,000  Level Denver Center
06:51AM 40.8750 -108.4603 266° West 413 475 32,000  Level Salt Lake Center
06:52AM 40.8669 -108.6083 266° West 418 481 32,000  Level Salt Lake Center
06:53AM 40.8622 -108.6806 265° West 417 480 32,000  Level Denver Center
06:54AM 40.8511 -108.8539 265° West 421 484 32,000  Level Denver Center
06:54AM 40.8469 -108.9289 266° West 424 488 32,000 60 Level Salt Lake Center
06:55AM 40.8375 -109.0803 265° West 428 493 32,100  Climbing Salt Lake Center
06:56AM 40.8275 -109.2431 265° West 432 497 32,000 -60 Descending Salt Lake Center
06:57AM 40.8181 -109.3933 265° West 431 496 32,000  Level Salt Lake Center
06:58AM 40.8086 -109.5439 265° West 431 496 32,000  Level Salt Lake Center
06:59AM 40.7964 -109.7178 265° West 429 494 32,000  Level Salt Lake Center
07:00AM 40.7864 -109.8658 265° West 425 489 32,000  Level Salt Lake Center
07:01AM 40.7764 -110.0139 265° West 425 489 32,000  Level Salt Lake Center
07:02AM 40.7642 -110.1886 265° West 429 494 32,000  Level Salt Lake Center
07:03AM 40.7531 -110.3353 264° West 435 501 32,100  Climbing Salt Lake Center
07:08AM 40.6900 -111.1650 264° West 438 504 32,000 -60 Descending FlightAware
07:09AM 40.6800 -111.2810 264° West 435 501 32,000 60 Level FlightAware
07:10AM 40.6730 -111.3670 264° West 435 501 32,100  Climbing FlightAware
07:11AM 40.6630 -111.4990 264° West 434 499 32,000 -120 Descending FlightAware
07:11AM 40.6530 -111.6090 263° West 432 497 32,000  Level FlightAware
07:12AM 40.6450 -111.7080 264° West 432 497 32,000  Level FlightAware
07:13AM 40.6350 -111.8310 264° West 431 496 32,000  Level FlightAware
07:13AM 40.6260 -111.9300 263° West 435 501 32,000  Level FlightAware
07:14AM 40.6150 -112.0540 263° West 439 505 32,000 60 Level FlightAware
07:15AM 40.6050 -112.1630 263° West 439 505 32,100 60 Climbing FlightAware
07:15AM 40.5960 -112.2640 263° West 441 507 32,100 -120 Level FlightAware
07:16AM 40.5850 -112.3890 263° West 440 506 32,000 -120 Descending FlightAware
07:17AM 40.5750 -112.4920 263° West 439 505 32,000  Level FlightAware
07:18AM 40.5640 -112.6150 263° West 439 505 32,000  Level FlightAware
07:18AM 40.5560 -112.7020 263° West 439 505 32,000  Level FlightAware
07:19AM 40.5440 -112.8270 263° West 441 507 32,000  Level FlightAware
07:20AM 40.5330 -112.9440 263° West 442 509 32,000  Level FlightAware
07:20AM 40.5230 -113.0510 263° West 444 511 32,000  Level FlightAware
07:21AM 40.5120 -113.1580 262° West 445 512 32,000  Level FlightAware
07:22AM 40.5000 -113.2810 263° West 445 512 32,000  Level FlightAware
07:22AM 40.4900 -113.3880 263° West 446 513 32,000  Level FlightAware
07:23AM 40.4780 -113.5070 262° West 448 516 32,000  Level FlightAware
07:24AM 40.4680 -113.5990 262° West 449 517 32,000  Level FlightAware
07:25AM 40.4520 -113.7530 262° West 449 517 32,000  Level FlightAware
07:25AM 40.4420 -113.8440 262° West 449 517 32,000  Level FlightAware
07:26AM 40.4320 -113.9360 262° West 449 517 32,000  Level FlightAware
07:27AM 40.4200 -114.0510 262° West 449 517 32,000  Level FlightAware
07:28AM 40.4100 -114.1430 262° West 449 517 32,000  Level FlightAware
07:28AM 40.4000 -114.2350 262° West 449 517 32,000  Level FlightAware
07:29AM 40.3900 -114.3270 262° West 449 517 32,000  Level FlightAware
07:30AM 40.3810 -114.4190 263° West 449 517 32,000  Level FlightAware
07:30AM 40.3680 -114.5330 262° West 449 517 32,000  Level FlightAware
07:31AM 40.3590 -114.6250 263° West 449 517 32,000  Level FlightAware
07:32AM 40.3490 -114.7170 262° West 449 517 32,000  Level FlightAware
07:32AM 40.3390 -114.8090 262° West 449 517 32,000  Level FlightAware
07:33AM 40.3290 -114.9000 262° West 449 517 32,000  Level FlightAware
07:34AM 40.3170 -115.0150 262° West 449 517 32,000  Level FlightAware
07:34AM 40.2789 -115.3217 262° West 457 526 32,000  Level Salt Lake Center
07:35AM 40.2611 -115.4786 262° West 457 526 32,000  Level Salt Lake Center
07:36AM 40.2392 -115.6644 261° West 460 529 32,000  Level Salt Lake Center
07:37AM 40.2194 -115.8253 261° West 465 535 32,100  Climbing Salt Lake Center
07:38AM 40.1978 -115.9858 260° West 466 536 32,000 -60 Descending Salt Lake Center
07:39AM 40.1781 -116.1472 261° West 467 537 32,000 120 Level Salt Lake Center
07:40AM 40.1553 -116.3344 261° West 465 535 32,300 600 Climbing Salt Lake Center
07:41AM 40.1342 -116.4975 260° West 469 540 33,200 840 Climbing Salt Lake Center
07:42AM 40.1133 -116.6592 260° West 468 539 34,000 360 Climbing Salt Lake Center
07:43AM 40.0928 -116.8169 260° West 458 527 34,000  Level Salt Lake Center
07:44AM 40.0681 -117.0014 260° West 458 527 34,000  Level Salt Lake Center
07:45AM 40.0469 -117.1608 260° West 461 531 34,000  Level Salt Lake Center
07:46AM 40.0250 -117.3214 260° West 465 535 34,000  Level Salt Lake Center
07:47AM 40.0033 -117.4814 260° West 467 537 34,000  Level Salt Lake Center
07:48AM 39.9811 -117.6406 260° West 464 534 34,000  Level Salt Lake Center
07:49AM 39.9550 -117.8278 260° West 467 537 34,000  Level Salt Lake Center
07:51AM 39.9200 -117.9986 255° West 474 545 34,000  Level Salt Lake Center
07:52AM 39.8753 -118.1986 254° West 480 552 34,100  Climbing Oakland Center
07:53AM 39.8397 -118.3617 254° West 473 544 34,100 -60 Level Oakland Center
07:54AM 39.8019 -118.5258 253° West 475 547 34,000 -60 Descending Oakland Center
07:55AM 39.7653 -118.6886 254° West 475 547 34,000  Level Oakland Center
07:56AM 39.7289 -118.8469 253° West 464 534 34,000  Level Oakland Center
08:02AM 39.5360 -119.6700 253° West 468 539 34,000  Level FlightAware
08:02AM 39.5080 -119.7860 253° West 469 540 34,100 60 Climbing FlightAware
08:03AM 39.4760 -119.9230 253° West 473 544 34,100  Level FlightAware
08:04AM 39.4470 -120.0420 253° West 473 544 34,100  Level FlightAware
08:05AM 39.4030 -120.2210 252° West 466 536 34,100 -60 Level FlightAware
08:06AM 39.3610 -120.3910 252° West 464 534 34,000 -120 Descending FlightAware
08:06AM 39.3470 -120.4510 253° West 461 531 34,000  Level FlightAware
08:07AM 39.2850 -120.7020 252° West 461 531 34,000  Level FlightAware
08:08AM 39.2590 -120.8070 252° West 462 532 34,000  Level FlightAware
08:09AM 39.2300 -120.9220 252° West 461 531 34,000  Level FlightAware
08:09AM 39.2000 -121.0400 252° West 461 531 34,000  Level FlightAware
08:10AM 39.1770 -121.1310 252° West 460 529 34,000  Level FlightAware
08:11AM 39.1470 -121.2510 252° West 461 531 34,000  Level FlightAware
08:12AM 39.1170 -121.3660 251° West 462 532 34,000 60 Level FlightAware
08:12AM 39.0930 -121.4600 252° West 462 532 34,100  Climbing FlightAware
08:13AM 39.0630 -121.5750 251° West 462 532 34,000 -120 Descending FlightAware
08:14AM 39.0320 -121.6950 252° West 462 532 34,000  Level FlightAware
08:14AM 39.0050 -121.7990 252° West 462 532 34,000  Level FlightAware
08:15AM 38.9750 -121.9140 251° West 463 533 34,000  Level FlightAware
08:16AM 38.9480 -122.0180 252° West 464 534 34,000  Level FlightAware
08:16AM 38.9210 -122.1200 251° West 465 535 34,000  Level FlightAware
08:17AM 38.8890 -122.2430 252° West 467 537 34,000  Level FlightAware
08:18AM 38.8610 -122.3480 251° West 468 539 34,000  Level FlightAware
08:19AM 38.8300 -122.4640 251° West 468 539 34,000  Level FlightAware
08:19AM 38.8010 -122.5710 251° West 469 540 34,000  Level FlightAware
08:20AM 38.7700 -122.6870 251° West 471 542 34,000 60 Level FlightAware
08:21AM 38.7410 -122.7930 251° West 473 544 34,100 60 Climbing FlightAware
08:21AM 38.7120 -122.8990 251° West 475 547 34,100 -120 Level FlightAware
08:22AM 38.6810 -123.0150 251° West 475 547 34,000 -120 Descending FlightAware
08:23AM 38.6530 -123.1190 251° West 475 547 34,000  Level FlightAware
08:23AM 38.6220 -123.2280 250° West 475 547 34,000  Level FlightAware
08:24AM 38.5890 -123.3500 251° West 475 547 34,000  Level FlightAware
08:25AM 38.5590 -123.4580 250° West 476 548 34,000  Level FlightAware
08:26AM 38.5260 -123.5750 250° West 476 548 34,000  Level FlightAware
08:26AM 38.4970 -123.6780 250° West 475 547 34,000  Level FlightAware
08:27AM 38.4680 -123.7830 251° West 476 548 34,000  Level FlightAware
08:28AM 38.4330 -123.9080 250° West 476 548 34,000  Level FlightAware
08:28AM 38.4040 -124.0100 250° West 476 548 34,000  Level FlightAware
08:29AM 38.3690 -124.1310 250° West 475 547 34,000  Level FlightAware
08:30AM 38.3470 -124.2100 250° West 475 547 34,000  Level FlightAware
08:30AM 38.3210 -124.2990 250° West 475 547 34,000  Level FlightAware
08:31AM 38.2950 -124.3890 250° West 475 547 34,000  Level FlightAware
08:32AM 38.2640 -124.5010 251° West 475 547 34,000  Level FlightAware
08:32AM 38.2380 -124.5900 250° West 475 547 34,000  Level FlightAware
08:33AM 38.2120 -124.6800 250° West 475 547 34,000  Level FlightAware
08:34AM 38.1870 -124.7690 250° West 475 547 34,000  Level FlightAware
08:34AM 38.1610 -124.8580 250° West 475 547 34,000  Level FlightAware
08:35AM 38.1290 -124.9700 250° West 475 547 34,000  Level FlightAware
08:36AM 38.1040 -125.0590 250° West 475 547 34,000  Level FlightAware
08:37AM 38.0780 -125.1480 250° West 475 547 34,000  Level FlightAware
08:37AM 38.0530 -125.2370 250° West 475 547 34,000  Level FlightAware
08:38AM 38.0270 -125.3270 250° West 475 547 34,000  Level FlightAware
08:39AM 37.9950 -125.4380 250° West 475 547 34,000  Level FlightAware
08:41AM 37.9204 -125.6763 248° West  Level FlightAware Approximate
08:42AM 37.8768 -125.8149 248° West  Level FlightAware Approximate
08:43AM 37.8329 -125.9533 248° West  Level FlightAware Approximate
08:44AM 37.7889 -126.0915 248° West  Level FlightAware Approximate
08:45AM 37.7448 -126.2296 248° West  Level FlightAware Approximate
08:46AM 37.7005 -126.3675 248° West  Level FlightAware Approximate
08:47AM 37.6560 -126.5053 248° West  Level FlightAware Approximate
08:47AM 37.5000 -127.0000 250° West 488 562 34,000  Level Oakland Oceanic (ODAPS)
08:48AM 37.6114 -126.6429 248° West  Level FlightAware Approximate
08:49AM 37.5666 -126.7803 248° West  Level FlightAware Approximate
08:49AM 37.4500 -127.2000 250° West 486 559 34,000  Level Oakland Oceanic (ODAPS)
08:50AM 37.5216 -126.9175 248° West  Level FlightAware Approximate
08:51AM 37.4837 -127.0569 250° West  Level FlightAware Approximate
08:52AM 37.4437 -127.1965 250° West  Level FlightAware Approximate
08:53AM 37.4036 -127.3358 250° West  Level FlightAware Approximate
08:54AM 37.2189 -127.9694 250° West 488 562 34,000  Level FlightAware Transoceanic
08:55AM 37.1713 -128.1302 250° West 488 562 34,000  Level FlightAware Transoceanic
08:56AM 37.1200 -128.3231 249° West 486 559 34,000  Level FlightAware Transoceanic
08:57AM 37.0720 -128.4827 249° West 486 559 34,000  Level FlightAware Transoceanic
08:58AM 37.0237 -128.6422 249° West 486 559 34,000  Level FlightAware Transoceanic
08:59AM 36.9753 -128.8014 249° West 486 559 34,000  Level FlightAware Transoceanic
09:00AM 36.9267 -128.9604 249° West 486 559 34,000  Level FlightAware Transoceanic
09:01AM 36.8778 -129.1192 249° West 486 559 34,000  Level FlightAware Transoceanic
09:02AM 36.8287 -129.2779 249° West 486 559 34,000  Level FlightAware Transoceanic
09:02AM 36.8000 -129.3833 249° West 486 559 34,000  Level Oakland Oceanic (ODAPS)
09:03AM 36.7794 -129.4363 249° West 486 559 34,000  Level FlightAware Transoceanic
09:04AM 36.7300 -129.5945 249° West 486 559 34,000  Level FlightAware Transoceanic
09:05AM 36.6803 -129.7525 249° West 486 559 34,000  Level FlightAware Transoceanic
09:06AM 36.6303 -129.9103 248° West 486 559 34,000  Level FlightAware Transoceanic
09:07AM 36.5802 -130.0679 248° West 486 559 34,000  Level FlightAware Transoceanic
09:08AM 36.5299 -130.2253 248° West 486 559 34,000  Level FlightAware Transoceanic
09:09AM 36.4967 -130.3393 248° West 486 559 34,000  Level FlightAware Transoceanic
09:10AM 36.4454 -130.4979 248° West 486 559 34,000  Level FlightAware Transoceanic
09:11AM 36.3938 -130.6562 248° West 486 559 34,000  Level FlightAware Transoceanic
09:12AM 36.3421 -130.8144 248° West 486 559 34,000  Level FlightAware Transoceanic
09:13AM 36.2902 -130.9724 248° West 486 559 34,000  Level FlightAware Transoceanic
09:14AM 36.2381 -131.1301 248° West 486 559 34,000  Level FlightAware Transoceanic
09:15AM 36.1857 -131.2877 248° West 486 559 34,000  Level FlightAware Transoceanic
09:16AM 36.1332 -131.4450 247° West 486 559 34,000  Level FlightAware Transoceanic
09:16AM 36.1000 -131.5167 248° West 485 558 34,000  Level Oakland Oceanic (ODAPS)
09:17AM 36.0804 -131.6021 247° West 486 559 34,000  Level FlightAware Transoceanic
09:18AM 36.0275 -131.7590 247° West 486 559 34,000  Level FlightAware Transoceanic
09:19AM 35.9743 -131.9157 247° West 486 559 34,000  Level FlightAware Transoceanic
09:20AM 35.9210 -132.0722 247° West 486 559 34,000  Level FlightAware Transoceanic
09:21AM 35.8674 -132.2285 247° West 486 559 34,000  Level FlightAware Transoceanic
09:22AM 35.8136 -132.3845 247° West 486 559 34,000  Level FlightAware Transoceanic
09:23AM 35.7895 -132.4352 247° West 485 558 34,000  Level FlightAware Transoceanic
09:24AM 35.7371 -132.5876 247° West 485 558 34,000  Level FlightAware Transoceanic
09:25AM 35.6845 -132.7398 247° West 485 558 34,000  Level FlightAware Transoceanic
09:26AM 35.6317 -132.8918 247° West 485 558 34,000  Level FlightAware Transoceanic
09:27AM 35.5787 -133.0436 247° West 485 558 34,000  Level FlightAware Transoceanic
09:28AM 35.5255 -133.1952 247° West 485 558 34,000  Level FlightAware Transoceanic
09:29AM 35.4721 -133.3466 247° West 485 558 34,000  Level FlightAware Transoceanic
09:30AM 35.4186 -133.4978 246° West 485 558 34,000  Level FlightAware Transoceanic
09:30AM 35.3833 -133.6167 246° West 475 547 34,000  Level Oakland Oceanic (ODAPS)
09:31AM 35.3648 -133.6487 246° West 485 558 34,000  Level FlightAware Transoceanic
09:32AM 35.3109 -133.7995 246° West 485 558 34,000  Level FlightAware Transoceanic
09:33AM 35.2567 -133.9501 246° West 485 558 34,000  Level FlightAware Transoceanic
09:34AM 35.2024 -134.1005 246° West 485 558 34,000  Level FlightAware Transoceanic
09:35AM 35.1479 -134.2507 246° West 485 558 34,000  Level FlightAware Transoceanic
09:36AM 35.0933 -134.4007 246° West 485 558 34,000  Level FlightAware Transoceanic
09:37AM 35.0384 -134.5504 246° West 485 558 34,000  Level FlightAware Transoceanic
09:38AM 34.9833 -134.7000 246° West 475 547 34,000  Level FlightAware Transoceanic
09:38AM 34.9833 -134.7000 246° West 465 535 34,000  Level Oakland Oceanic (ODAPS)
09:39AM 34.9297 -134.8435 245° Southwest 475 547 34,000  Level FlightAware Transoceanic
09:40AM 34.8759 -134.9869 245° Southwest 475 547 34,000  Level FlightAware Transoceanic
09:41AM 34.8219 -135.1300 245° Southwest 475 547 34,000  Level FlightAware Transoceanic
09:42AM 34.7678 -135.2730 245° Southwest 475 547 34,000  Level FlightAware Transoceanic
09:43AM 34.7135 -135.4158 245° Southwest 475 547 34,000  Level FlightAware Transoceanic
09:44AM 34.6590 -135.5584 245° Southwest 465 535 34,000  Level FlightAware Transoceanic
09:44AM 34.6333 -135.6333 245° Southwest 461 531 34,000  Level Oakland Oceanic (ODAPS)
09:45AM 34.6044 -135.7008 245° Southwest 465 535 34,000  Level FlightAware Transoceanic
09:46AM 34.5496 -135.8430 245° Southwest 465 535 34,000  Level FlightAware Transoceanic
09:47AM 34.4947 -135.9850 245° Southwest 465 535 34,000  Level FlightAware Transoceanic
09:48AM 34.4395 -136.1269 245° Southwest 465 535 34,000  Level FlightAware Transoceanic
09:49AM 34.3842 -136.2685 245° Southwest 465 535 34,000  Level FlightAware Transoceanic
09:50AM 34.3060 -136.4747 244° Southwest 461 531 34,000  Level FlightAware Transoceanic
09:51AM 34.2509 -136.6143 244° Southwest 461 531 34,000  Level FlightAware Transoceanic
09:52AM 34.1956 -136.7537 244° Southwest 461 531 34,000  Level FlightAware Transoceanic
09:53AM 34.1402 -136.8929 244° Southwest 461 531 34,000  Level FlightAware Transoceanic
09:54AM 34.0846 -137.0319 244° Southwest 461 531 34,000  Level FlightAware Transoceanic
09:55AM 34.0288 -137.1708 244° Southwest 461 531 34,000  Level FlightAware Transoceanic
09:56AM 33.9729 -137.3094 244° Southwest 461 531 34,000  Level FlightAware Transoceanic
09:57AM 33.9169 -137.4479 244° Southwest 461 531 34,000  Level FlightAware Transoceanic
09:58AM 33.8607 -137.5862 244° Southwest 461 531 34,000  Level FlightAware Transoceanic
09:58AM 33.8500 -137.6000 244° Southwest 457 526 34,000  Level Oakland Oceanic (ODAPS)
09:59AM 33.8043 -137.7244 244° Southwest 461 531 34,000  Level FlightAware Transoceanic
10:00AM 33.7478 -137.8623 244° Southwest 461 531 34,000  Level FlightAware Transoceanic
10:01AM 33.6911 -138.0001 244° Southwest 461 531 34,000  Level FlightAware Transoceanic
10:02AM 33.6343 -138.1376 244° Southwest 461 531 34,000  Level FlightAware Transoceanic
10:03AM 33.5773 -138.2750 243° Southwest 461 531 34,000  Level FlightAware Transoceanic
10:04AM 33.5114 -138.4233 243° Southwest 457 526 34,000  Level FlightAware Transoceanic
10:05AM 33.4545 -138.5599 243° Southwest 457 526 34,000  Level FlightAware Transoceanic
10:06AM 33.3974 -138.6963 243° Southwest 457 526 34,000  Level FlightAware Transoceanic
10:07AM 33.3401 -138.8325 243° Southwest 457 526 34,000  Level FlightAware Transoceanic
10:08AM 33.2827 -138.9686 243° Southwest 457 526 34,000  Level FlightAware Transoceanic
10:09AM 33.2252 -139.1044 243° Southwest 457 526 34,000  Level FlightAware Transoceanic
10:10AM 33.1675 -139.2401 243° Southwest 457 526 34,000  Level FlightAware Transoceanic
10:11AM 33.1096 -139.3756 243° Southwest 457 526 34,000  Level FlightAware Transoceanic
10:12AM 33.0516 -139.5110 243° Southwest 457 526 34,000  Level FlightAware Transoceanic
10:12AM 33.0667 -139.4667 243° Southwest 453 521 34,000  Level Oakland Oceanic (ODAPS)
10:13AM 32.9935 -139.6461 243° Southwest 457 526 34,000  Level FlightAware Transoceanic
10:14AM 32.9352 -139.7811 243° Southwest 457 526 34,000  Level FlightAware Transoceanic
10:15AM 32.8768 -139.9159 243° Southwest 457 526 34,000  Level FlightAware Transoceanic
10:16AM 32.8182 -140.0505 243° Southwest 457 526 34,000  Level FlightAware Transoceanic
10:17AM 32.7595 -140.1850 243° Southwest 457 526 34,000  Level FlightAware Transoceanic
10:18AM 32.7297 -140.2467 243° Southwest 453 521 34,000  Level FlightAware Transoceanic
10:19AM 32.6731 -140.3762 242° Southwest 453 521 34,000  Level FlightAware Transoceanic
10:20AM 32.6163 -140.5054 242° Southwest 453 521 34,000  Level FlightAware Transoceanic
10:21AM 32.5594 -140.6346 242° Southwest 453 521 34,000  Level FlightAware Transoceanic
10:22AM 32.5024 -140.7635 242° Southwest 453 521 34,000  Level FlightAware Transoceanic
10:23AM 32.4453 -140.8923 242° Southwest 453 521 34,000  Level FlightAware Transoceanic
10:24AM 32.3880 -141.0209 242° Southwest 453 521 34,000  Level FlightAware Transoceanic
10:25AM 32.3306 -141.1494 242° Southwest 453 521 34,000  Level FlightAware Transoceanic
10:26AM 32.2730 -141.2776 242° Southwest 453 521 34,000  Level FlightAware Transoceanic
10:26AM 32.2833 -141.2833 241° Southwest 448 516 34,000  Level Oakland Oceanic (ODAPS)
10:27AM 32.2153 -141.4058 242° Southwest 453 521 34,000  Level FlightAware Transoceanic
10:28AM 32.1575 -141.5337 242° Southwest 453 521 34,000  Level FlightAware Transoceanic
10:29AM 32.0996 -141.6615 242° Southwest 453 521 34,000  Level FlightAware Transoceanic
10:30AM 32.0415 -141.7892 242° Southwest 453 521 34,000  Level FlightAware Transoceanic
10:31AM 31.9833 -141.9167 242° Southwest 453 521 34,000  Level FlightAware Transoceanic
10:31AM 31.9833 -141.9167 242° Southwest 443 510 34,000  Level Oakland Oceanic (ODAPS)
10:32AM 31.9258 -142.0423 242° Southwest 448 516 34,000  Level FlightAware Transoceanic
10:33AM 31.8680 -142.1678 242° Southwest 448 516 34,000  Level FlightAware Transoceanic
10:34AM 31.8102 -142.2931 241° Southwest 448 516 34,000  Level FlightAware Transoceanic
10:35AM 31.7523 -142.4182 241° Southwest 448 516 34,000  Level FlightAware Transoceanic
10:36AM 31.6942 -142.5432 241° Southwest 448 516 34,000  Level FlightAware Transoceanic
10:37AM 31.6298 -142.6814 241° Southwest 443 510 34,000  Level FlightAware Transoceanic
10:38AM 31.5704 -142.8083 241° Southwest 443 510 34,000  Level FlightAware Transoceanic
10:39AM 31.5109 -142.9350 241° Southwest 443 510 34,000  Level FlightAware Transoceanic
10:40AM 31.4513 -143.0616 241° Southwest 443 510 34,000  Level FlightAware Transoceanic
10:40AM 31.4667 -143.0500 241° Southwest 442 509 34,000  Level Oakland Oceanic (ODAPS)
10:41AM 31.3916 -143.1880 241° Southwest 443 510 34,000  Level FlightAware Transoceanic
10:42AM 31.3317 -143.3143 241° Southwest 443 510 34,000  Level FlightAware Transoceanic
10:43AM 31.2717 -143.4404 241° Southwest 443 510 34,000  Level FlightAware Transoceanic
10:44AM 31.2116 -143.5663 241° Southwest 443 510 34,000  Level FlightAware Transoceanic
10:45AM 31.1514 -143.6920 241° Southwest 443 510 34,000  Level FlightAware Transoceanic
10:46AM 31.1045 -143.8077 241° Southwest 442 509 34,000  Level FlightAware Transoceanic
10:47AM 31.0437 -143.9334 241° Southwest 442 509 34,000  Level FlightAware Transoceanic
10:48AM 30.9827 -144.0589 240° Southwest 442 509 34,000  Level FlightAware Transoceanic
10:49AM 30.9217 -144.1843 240° Southwest 442 509 34,000  Level FlightAware Transoceanic
10:50AM 30.8605 -144.3096 240° Southwest 442 509 34,000  Level FlightAware Transoceanic
10:51AM 30.7993 -144.4346 240° Southwest 442 509 34,000  Level FlightAware Transoceanic
10:52AM 30.7379 -144.5596 240° Southwest 442 509 34,000  Level FlightAware Transoceanic
10:53AM 30.6763 -144.6843 240° Southwest 442 509 34,000  Level FlightAware Transoceanic
10:53AM 30.6167 -144.7833 240° Southwest 440 506 34,000  Level Oakland Oceanic (ODAPS)
10:54AM 30.6147 -144.8089 240° Southwest 442 509 34,000  Level FlightAware Transoceanic
10:55AM 30.5529 -144.9333 240° Southwest 442 509 34,000  Level FlightAware Transoceanic
10:56AM 30.4911 -145.0576 240° Southwest 442 509 34,000  Level FlightAware Transoceanic
10:57AM 30.4291 -145.1817 240° Southwest 442 509 34,000  Level FlightAware Transoceanic
10:58AM 30.3670 -145.3057 240° Southwest 442 509 34,000  Level FlightAware Transoceanic
10:59AM 30.3047 -145.4295 240° Southwest 442 509 34,000  Level FlightAware Transoceanic
11:00AM 30.2441 -145.5323 240° Southwest 440 506 34,000  Level FlightAware Transoceanic
11:01AM 30.1816 -145.6566 240° Southwest 440 506 34,000  Level FlightAware Transoceanic
11:02AM 30.1190 -145.7807 240° Southwest 440 506 34,000  Level FlightAware Transoceanic
11:03AM 30.0562 -145.9047 240° Southwest 440 506 34,000  Level FlightAware Transoceanic
11:04AM 29.9934 -146.0285 240° Southwest 440 506 34,000  Level FlightAware Transoceanic
11:05AM 29.9304 -146.1521 240° Southwest 440 506 34,000  Level FlightAware Transoceanic
11:06AM 29.8673 -146.2756 239° Southwest 440 506 34,000  Level FlightAware Transoceanic
11:07AM 29.8041 -146.3990 239° Southwest 440 506 34,000  Level FlightAware Transoceanic
11:07AM 29.7833 -146.4500 239° Southwest 438 504 34,000  Level Oakland Oceanic (ODAPS)
11:08AM 29.7408 -146.5221 239° Southwest 440 506 34,000  Level FlightAware Transoceanic
11:09AM 29.6774 -146.6452 239° Southwest 440 506 34,000  Level FlightAware Transoceanic
11:10AM 29.6138 -146.7680 239° Southwest 440 506 34,000  Level FlightAware Transoceanic
11:11AM 29.5502 -146.8907 239° Southwest 440 506 34,000  Level FlightAware Transoceanic
11:12AM 29.4864 -147.0133 239° Southwest 440 506 34,000  Level FlightAware Transoceanic
11:13AM 29.4225 -147.1357 239° Southwest 440 506 34,000  Level FlightAware Transoceanic
11:14AM 29.3448 -147.2909 239° Southwest 438 504 34,000  Level FlightAware Transoceanic
11:15AM 29.2817 -147.4104 239° Southwest 438 504 34,000  Level FlightAware Transoceanic
11:16AM 29.2186 -147.5298 239° Southwest 438 504 34,000  Level FlightAware Transoceanic
11:17AM 29.1553 -147.6490 239° Southwest 438 504 34,000  Level FlightAware Transoceanic
11:18AM 29.0919 -147.7681 239° Southwest 438 504 34,000  Level FlightAware Transoceanic
11:19AM 29.0284 -147.8870 239° Southwest 438 504 34,000  Level FlightAware Transoceanic
11:20AM 28.9648 -148.0058 238° Southwest 438 504 34,000  Level FlightAware Transoceanic
11:21AM 28.9011 -148.1245 238° Southwest 438 504 34,000  Level FlightAware Transoceanic
11:21AM 28.9333 -148.0667 238° Southwest 426 490 34,000  Level Oakland Oceanic (ODAPS)
11:22AM 28.8373 -148.2430 238° Southwest 438 504 34,000  Level FlightAware Transoceanic
11:23AM 28.7733 -148.3613 238° Southwest 438 504 34,000  Level FlightAware Transoceanic
11:24AM 28.7093 -148.4796 238° Southwest 438 504 34,000  Level FlightAware Transoceanic
11:25AM 28.6452 -148.5976 238° Southwest 438 504 34,000  Level FlightAware Transoceanic
11:26AM 28.5810 -148.7155 238° Southwest 438 504 34,000  Level FlightAware Transoceanic
11:27AM 28.5765 -148.7242 238° Southwest 426 490 34,000  Level FlightAware Transoceanic
11:28AM 28.5167 -148.8333 238° Southwest 426 490 34,000  Level FlightAware Transoceanic
11:28AM 28.5167 -148.8333 238° Southwest 432 497 34,000  Level Oakland Oceanic (ODAPS)
11:29AM 28.4548 -148.9460 238° Southwest 426 490 34,000  Level FlightAware Transoceanic
11:30AM 28.3928 -149.0586 238° Southwest 426 490 34,000  Level FlightAware Transoceanic
11:31AM 28.3307 -149.1710 238° Southwest 426 490 34,000  Level FlightAware Transoceanic
11:32AM 28.2685 -149.2833 238° Southwest 426 490 34,000  Level FlightAware Transoceanic
11:33AM 28.2062 -149.3955 238° Southwest 426 490 34,000  Level FlightAware Transoceanic
11:34AM 28.1374 -149.5191 238° Southwest 432 497 34,000  Level FlightAware Transoceanic
11:35AM 28.0739 -149.6329 238° Southwest 432 497 34,000  Level FlightAware Transoceanic
11:35AM 28.0667 -149.6333 238° Southwest 429 494 34,000  Level Oakland Oceanic (ODAPS)
11:36AM 28.0102 -149.7466 238° Southwest 432 497 34,000  Level FlightAware Transoceanic
11:37AM 27.9465 -149.8602 238° Southwest 432 497 34,000  Level FlightAware Transoceanic
11:38AM 27.8827 -149.9736 237° Southwest 432 497 34,000  Level FlightAware Transoceanic
11:39AM 27.8188 -150.0869 237° Southwest 432 497 34,000  Level FlightAware Transoceanic
11:40AM 27.7548 -150.2000 237° Southwest 432 497 34,000  Level FlightAware Transoceanic
11:41AM 27.6843 -150.3134 237° Southwest 429 494 34,000  Level FlightAware Transoceanic
11:42AM 27.6203 -150.4262 237° Southwest 429 494 34,000  Level FlightAware Transoceanic
11:43AM 27.5561 -150.5390 237° Southwest 429 494 34,000  Level FlightAware Transoceanic
11:44AM 27.4919 -150.6516 237° Southwest 429 494 34,000  Level FlightAware Transoceanic
11:45AM 27.4276 -150.7641 237° Southwest 429 494 34,000  Level FlightAware Transoceanic
11:46AM 27.3631 -150.8764 237° Southwest 429 494 34,000  Level FlightAware Transoceanic
11:47AM 27.2986 -150.9886 237° Southwest 429 494 34,000  Level FlightAware Transoceanic
11:48AM 27.2341 -151.1007 237° Southwest 429 494 34,000  Level FlightAware Transoceanic
11:49AM 27.1694 -151.2127 237° Southwest 429 494 34,000  Level FlightAware Transoceanic
11:49AM 27.1833 -151.2000 237° Southwest 433 498 34,000  Level Oakland Oceanic (ODAPS)
11:50AM 27.1046 -151.3245 237° Southwest 429 494 34,000  Level FlightAware Transoceanic
11:51AM 27.0397 -151.4362 237° Southwest 429 494 34,000  Level FlightAware Transoceanic
11:52AM 26.9748 -151.5477 237° Southwest 429 494 34,000  Level FlightAware Transoceanic
11:53AM 26.9098 -151.6592 237° Southwest 429 494 34,000  Level FlightAware Transoceanic
11:54AM 26.8446 -151.7705 237° Southwest 429 494 34,000  Level FlightAware Transoceanic
11:55AM 26.7912 -151.8712 237° Southwest 433 498 34,000  Level FlightAware Transoceanic
11:56AM 26.7255 -151.9826 237° Southwest 433 498 34,000  Level FlightAware Transoceanic
11:57AM 26.6598 -152.0939 236° Southwest 433 498 34,000  Level FlightAware Transoceanic
11:58AM 26.5939 -152.2050 236° Southwest 433 498 34,000  Level FlightAware Transoceanic
11:59AM 26.5280 -152.3161 236° Southwest 433 498 34,000  Level FlightAware Transoceanic
12:00PM 26.4620 -152.4269 236° Southwest 433 498 34,000  Level FlightAware Transoceanic
12:01PM 26.3959 -152.5377 236° Southwest 433 498 34,000  Level FlightAware Transoceanic
12:02PM 26.3297 -152.6484 236° Southwest 433 498 34,000  Level FlightAware Transoceanic
12:03PM 26.2634 -152.7589 236° Southwest 433 498 34,000  Level FlightAware Transoceanic
12:03PM 26.2833 -152.7167 236° Southwest 423 487 34,000  Level Oakland Oceanic (ODAPS)
12:04PM 26.1971 -152.8693 236° Southwest 433 498 34,000  Level FlightAware Transoceanic
12:05PM 26.1307 -152.9795 236° Southwest 433 498 34,000  Level FlightAware Transoceanic
12:06PM 26.0641 -153.0897 236° Southwest 433 498 34,000  Level FlightAware Transoceanic
12:07PM 25.9975 -153.1997 236° Southwest 433 498 34,000  Level FlightAware Transoceanic
12:08PM 25.9308 -153.3096 236° Southwest 433 498 34,000  Level FlightAware Transoceanic
12:09PM 25.8958 -153.3604 236° Southwest 423 487 34,000  Level FlightAware Transoceanic
12:10PM 25.8310 -153.4673 236° Southwest 423 487 34,000  Level FlightAware Transoceanic
12:11PM 25.7660 -153.5741 236° Southwest 423 487 34,000  Level FlightAware Transoceanic
12:12PM 25.7010 -153.6807 236° Southwest 423 487 34,000  Level FlightAware Transoceanic
12:13PM 25.6359 -153.7873 236° Southwest 423 487 34,000  Level FlightAware Transoceanic
12:14PM 25.5708 -153.8937 236° Southwest 423 487 34,000  Level FlightAware Transoceanic
12:15PM 25.5055 -154.0000 236° Southwest 423 487 34,000  Level FlightAware Transoceanic
12:16PM 25.4402 -154.1062 236° Southwest 423 487 34,000  Level FlightAware Transoceanic
12:16PM 25.3833 -154.2000 236° Southwest 429 494 34,000  Level Oakland Oceanic (ODAPS)
12:17PM 25.3748 -154.2122 236° Southwest 423 487 34,000  Level FlightAware Transoceanic
12:18PM 25.3093 -154.3182 236° Southwest 423 487 34,000  Level FlightAware Transoceanic
12:19PM 25.2438 -154.4240 236° Southwest 423 487 34,000  Level FlightAware Transoceanic
12:20PM 25.1781 -154.5298 236° Southwest 423 487 34,000  Level FlightAware Transoceanic
12:21PM 25.1124 -154.6354 235° Southwest 423 487 34,000  Level FlightAware Transoceanic
12:22PM 25.0467 -154.7409 235° Southwest 423 487 34,000  Level FlightAware Transoceanic
12:22PM 25.0167 -154.7833 236° Southwest 428 493 34,000  Level Oakland Oceanic (ODAPS)
12:23PM 24.9842 -154.8414 235° Southwest 429 494 34,000  Level FlightAware Transoceanic
12:24PM 24.9175 -154.9479 235° Southwest 429 494 34,000  Level FlightAware Transoceanic
12:25PM 24.8506 -155.0543 235° Southwest 429 494 34,000  Level FlightAware Transoceanic
12:26PM 24.7837 -155.1605 235° Southwest 429 494 34,000  Level FlightAware Transoceanic
12:27PM 24.7167 -155.2667 235° Southwest 429 494 34,000  Level FlightAware Transoceanic
12:27PM 24.7500 -155.4333 235° Southwest 440 506 34,000  Level Honolulu Center
12:28PM 24.6503 -155.3722 235° Southwest 428 493 34,000  Level FlightAware Transoceanic
12:28PM 24.6833 -155.5167 229° Southwest 440 506 34,000  Level Honolulu Center
12:29PM 24.5839 -155.4776 235° Southwest 428 493 34,000  Level FlightAware Transoceanic
12:29PM 24.6000 -155.6333 232° Southwest 430 495 34,000  Level Honolulu Center
12:30PM 24.5174 -155.5828 235° Southwest 428 493 34,000  Level FlightAware Transoceanic
12:30PM 24.5333 -155.7500 238° Southwest 430 495 34,000  Level Honolulu Center
12:31PM 24.4509 -155.6880 235° Southwest 428 493 34,000  Level FlightAware Transoceanic
12:31PM 24.4500 -155.8500 228° Southwest 480 552 34,000  Level Honolulu Center
12:32PM 24.3842 -155.7930 235° Southwest 428 493 34,000  Level FlightAware Transoceanic
12:32PM 24.3333 -155.8833 195° South 460 529 34,000  Level Honolulu Center
12:33PM 24.3175 -155.8980 235° Southwest 428 493 34,000  Level FlightAware Transoceanic
12:33PM 24.2167 -155.9500 208° Southwest 460 529 34,000  Level Honolulu Center
12:34PM 24.1000 -156.0167 208° Southwest 460 529 34,000  Level Honolulu Center
12:35PM 24.0000 -156.0667 205° Southwest 460 529 34,000  Level Honolulu Center
12:36PM 23.8833 -156.1333 208° Southwest 450 518 34,000  Level Honolulu Center
12:37PM 23.7667 -156.2000 208° Southwest 450 518 34,000  Level Honolulu Center
12:38PM 23.6667 -156.2667 211° Southwest 450 518 34,000  Level Honolulu Center
12:39PM 23.5500 -156.3167 201° Southwest 450 518 34,000  Level Honolulu Center
12:40PM 23.4333 -156.3833 208° Southwest 450 518 34,000  Level Honolulu Center
12:41PM 23.3333 -156.4500 211° Southwest 450 518 34,000  Level Honolulu Center
12:42PM 23.2167 -156.5167 208° Southwest 440 506 34,000  Level Honolulu Center
12:43PM 23.1000 -156.5667 202° Southwest 450 518 34,000 -60 Level Honolulu Center
12:44PM 22.9833 -156.6500 213° Southwest 450 518 33,900  Descending Honolulu Center
12:45PM 22.8667 -156.7000 202° Southwest 450 518 34,100  Climbing Honolulu Center
12:46PM 22.7500 -156.7667 208° Southwest 450 518 34,000 -60 Descending Honolulu Center
12:47PM 22.6333 -156.8333 208° Southwest 440 506 34,000  Level Honolulu Center
12:48PM 22.5333 -156.8833 205° Southwest 440 506 34,000 -1,020 Level Honolulu Center
12:49PM 22.4167 -156.9500 208° Southwest 440 506 32,000 -2,220 Descending Honolulu Center
12:50PM 22.3167 -157.0000 205° Southwest 440 506 29,600 -2,520 Descending Honolulu Center
12:51PM 22.2000 -157.0667 208° Southwest 430 495 27,000 -2,460 Descending Honolulu Center
12:52PM 22.1000 -157.1167 205° Southwest 430 495 24,700 -2,460 Descending Honolulu Center
12:53PM 22.0000 -157.1833 212° Southwest 420 483 22,100 -2,520 Descending Honolulu Center
12:54PM 21.9000 -157.2333 205° Southwest 400 460 19,700 -2,340 Descending Honolulu Center
12:55PM 21.8000 -157.2833 205° Southwest 380 437 17,500 -2,220 Descending Honolulu Center
12:56PM 21.7167 -157.3333 209° Southwest 360 414 15,300 -1,380 Descending Honolulu Center
01:02PM 21.3270 -157.5710 209° Southwest 241 277 8,900 -1,260 Descending FlightAware
01:02PM 21.3050 -157.5840 209° Southwest 241 277 8,300 -1,320 Descending FlightAware
01:03PM 21.2420 -157.6240 211° Southwest 223 257 7,000 -1,200 Descending FlightAware
01:04PM 21.2060 -157.6480 212° Southwest 217 250 6,200 -960 Descending FlightAware
01:04PM 21.1810 -157.6640 211° Southwest 202 232 5,900 -660 Descending FlightAware
01:05PM 21.1630 -157.6750 210° Southwest 193 222 5,600 -1,140 Descending FlightAware
01:05PM 21.1450 -157.6960 227° Southwest 187 215 4,900 -1,200 Descending FlightAware
01:05PM 21.1450 -157.6970 270° West 187 215 4,900  Level FlightAware